»·PEaware :: N733WT KSBP-KSMX

N733WT :: KSBP-KSMX

FLIGHT INFORMATION

Flight Status: Arrived
Operator: Privately registered:
United States
More flights under this callsign
Pilot: Jeremy K. (15416)
Aircraft: CESSNA 172 SKYHAWK
(C172)
More flights by this aircraft type
Origin: KSBP San Luis Co Regl
United States
Destination: KSMX Santa Maria Pub/Capt Hancock
United States
More flights between these airports :: More routes between these airports
Route:
File this flight plan on PilotEdge
Remarks: free flight
Altitude:
(Current/Filed)
5,000ft
Speed:
(Current/Filed)
100kts
Departed: 14-Jan-18 10:52 AM
Arrived: 14-Jan-18 11:31 AM
Distance/Time
Traveled:
22nm/0:39
Distance/Time
To Go:
Arrived

Flight Plot

Page will automatically refresh every two minutes.


Map Options




Map Legend


Flown Route
Filed Route
Departure Airport
Arrival Airport
Navaid (VOR, NDB)
Fix

Horizontal Profiles

Position Reports

Time Latitude Longitude Heading Altitude Ground
Speed
14-Jan-18 10:49 35.234412 -120.633390 305 215ft 0kts
14-Jan-18 10:50 35.234412 -120.633390 305 215ft 0kts
14-Jan-18 10:51 35.234412 -120.633390 305 215ft 0kts
14-Jan-18 10:52 35.234479 -120.633585 268 215ft 8kts
14-Jan-18 10:53 35.233632 -120.632561 126 215ft 15kts
14-Jan-18 10:54 35.233166 -120.632400 212 215ft 0kts
14-Jan-18 10:55 35.233166 -120.632400 212 215ft 0kts
14-Jan-18 10:56 35.233166 -120.632400 212 215ft 0kts
14-Jan-18 10:57 35.232767 -120.632952 272 215ft 15kts
14-Jan-18 10:58 35.234294 -120.635673 302 215ft 53kts
14-Jan-18 10:59 35.238769 -120.644133 298 498ft 83kts
14-Jan-18 11:00 35.244340 -120.655096 301 945ft 88kts
14-Jan-18 11:01 35.245346 -120.667075 234 1408ft 89kts
14-Jan-18 11:02 35.236722 -120.671293 163 1818ft 89kts
14-Jan-18 11:03 35.230713 -120.665476 131 2151ft 78kts
14-Jan-18 11:04 35.225796 -120.658635 130 2510ft 67kts
14-Jan-18 11:05 35.221463 -120.652495 129 2819ft 69kts
14-Jan-18 11:06 35.216274 -120.645158 130 3137ft 83kts
14-Jan-18 11:07 35.210253 -120.636754 130 3471ft 93kts
14-Jan-18 11:08 35.203536 -120.627610 137 3738ft 99kts
14-Jan-18 11:09 35.194560 -120.620451 150 4099ft 99kts
14-Jan-18 11:10 35.185020 -120.614369 152 4501ft 91kts
14-Jan-18 11:11 35.175694 -120.608862 153 4921ft 84kts
14-Jan-18 11:12 35.167064 -120.603927 154 5341ft 77kts
14-Jan-18 11:13 35.159185 -120.599480 154 5764ft 67kts
14-Jan-18 11:14 35.152816 -120.595916 154 6048ft 70kts
14-Jan-18 11:15 35.144470 -120.591372 155 5892ft 110kts
14-Jan-18 11:16 35.134212 -120.585916 155 5729ft 126kts
14-Jan-18 11:17 35.122670 -120.579696 155 5555ft 132kts
14-Jan-18 11:18 35.110556 -120.573107 155 5376ft 134kts
14-Jan-18 11:19 35.098369 -120.566455 155 5135ft 139kts
14-Jan-18 11:20 35.085635 -120.559492 155 4924ft 138kts
14-Jan-18 11:21 35.072891 -120.552494 155 4861ft 136kts
14-Jan-18 11:22 35.060305 -120.545598 155 4799ft 134kts
14-Jan-18 11:23 35.047809 -120.538760 155 4788ft 131kts
14-Jan-18 11:24 35.035484 -120.532020 155 4805ft 129kts
14-Jan-18 11:25 35.021996 -120.526370 168 4596ft 122kts
14-Jan-18 11:26 35.006827 -120.522405 168 3823ft 129kts
14-Jan-18 11:27 34.991510 -120.519418 172 3275ft 110kts
14-Jan-18 11:28 34.978606 -120.517134 171 2998ft 106kts
14-Jan-18 11:29 34.966228 -120.514815 170 2701ft 105kts
14-Jan-18 11:30 34.953702 -120.510601 160 2075ft 121kts
14-Jan-18 11:31 34.942319 -120.503178 141 1662ft 103kts
14-Jan-18 11:32 34.933760 -120.494125 130 1353ft 85kts
14-Jan-18 11:33 34.927388 -120.486313 133 1145ft 80kts
14-Jan-18 11:34 34.920791 -120.478500 137 1014ft 72kts
14-Jan-18 11:35 34.914798 -120.471914 131 726ft 68kts
14-Jan-18 11:36 34.909527 -120.465659 132 398ft 66kts
14-Jan-18 11:37 34.905402 -120.460760 138 265ft 34kts
14-Jan-18 11:38 34.905224 -120.459477 40 265ft 0kts
14-Jan-18 11:39 34.905272 -120.459427 40 265ft 2kts

Navigation Log

Ident Type
1. KSBP Airport
2. KSMX Airport